Time;durP1;ratioP1;P1;durP2;ratioP2;P2;SDS_P1;SDS_P2;PMS_P1;PMS_P2;Temp;Humidity;BMP_temperature;BMP_pressure;BME280_temperature;BME280_humidity;BME280_pressure;Samples;Min_cycle;Max_cycle;Signal;HPM_P1;HPM_P2
2023/03/22 00:01:29;;;;;;;5.07;4.70;;;;;;;8.37;100.00;62861.13;5038193;28;20225;-74
2023/03/22 00:03:57;;;;;;;5.93;5.28;;;;;;;8.43;100.00;62867.31;5047786;28;20210;-74
2023/03/22 00:06:26;;;;;;;7.22;5.30;;;;;;;8.40;100.00;62869.28;5028589;28;20293;-74
2023/03/22 00:08:53;;;;;;;6.93;6.13;;;;;;;8.37;100.00;62861.63;5025589;28;20198;-74
2023/03/22 00:11:23;;;;;;;8.52;6.13;;;;;;;8.26;100.00;62844.69;5026196;28;20310;-74
2023/03/22 00:13:51;;;;;;;8.13;6.20;;;;;;;8.36;100.00;62857.53;5026018;28;20201;-74
2023/03/22 00:16:18;;;;;;;5.60;5.10;;;;;;;8.47;100.00;62874.50;5027839;28;20209;-74
2023/03/22 00:18:45;;;;;;;6.13;5.60;;;;;;;8.54;100.00;62874.09;5040522;28;20253;-74
2023/03/22 00:21:15;;;;;;;7.47;5.75;;;;;;;8.54;100.00;62881.72;5028137;28;20219;-74
2023/03/22 00:23:44;;;;;;;6.63;6.03;;;;;;;8.57;100.00;62879.75;5033056;28;20502;-73
2023/03/22 00:26:12;;;;;;;11.02;7.05;;;;;;;8.59;100.00;62881.31;5026474;28;20234;-74
2023/03/22 00:28:39;;;;;;;13.23;6.07;;;;;;;8.59;100.00;62881.81;5024312;28;20203;-73
2023/03/22 00:31:07;;;;;;;9.65;6.05;;;;;;;8.58;100.00;62883.31;5026572;28;20207;-74
2023/03/22 00:33:34;;;;;;;6.45;5.85;;;;;;;8.57;100.00;62881.78;5025793;28;20199;-73
2023/03/22 00:36:02;;;;;;;5.63;4.60;;;;;;;8.63;100.00;62891.03;5024851;28;20495;-74
2023/03/22 00:38:35;;;;;;;4.07;3.65;;;;;;;8.59;100.00;62883.84;5030270;28;20198;-74
2023/03/22 00:41:08;;;;;;;5.32;4.80;;;;;;;8.55;100.00;62879.69;5036907;28;20218;-75
2023/03/22 00:43:35;;;;;;;5.35;4.78;;;;;;;8.54;100.00;62879.19;5028459;28;20218;-74
2023/03/22 00:46:02;;;;;;;5.13;4.63;;;;;;;8.46;100.00;62873.47;5023574;28;20234;-73
2023/03/22 00:48:30;;;;;;;5.82;4.97;;;;;;;8.49;100.00;62873.50;5026948;28;20241;-74
2023/03/22 00:50:57;;;;;;;5.70;5.18;;;;;;;8.45;100.00;62866.84;5025741;28;20206;-74
2023/03/22 00:53:24;;;;;;;6.03;5.50;;;;;;;8.51;100.00;62875.59;5006694;28;20246;-75
2023/03/22 00:55:51;;;;;;;6.57;5.97;;;;;;;8.53;100.00;62878.16;5024404;28;20488;-74
2023/03/22 00:58:20;;;;;;;7.80;7.10;;;;;;;8.31;100.00;62855.44;5026434;28;20264;-75
2023/03/22 01:00:48;;;;;;;10.60;7.32;;;;;;;8.33;100.00;62860.03;5026645;28;20261;-74
2023/03/22 01:03:16;;;;;;;8.40;7.25;;;;;;;8.39;100.00;62860.66;5024955;28;20234;-74
2023/03/22 01:05:45;;;;;;;11.38;7.68;;;;;;;8.44;100.00;62868.34;5033356;28;20233;-73
2023/03/22 01:08:13;;;;;;;9.25;7.70;;;;;;;8.45;100.00;62871.91;5041090;28;20399;-74
2023/03/22 01:10:41;;;;;;;10.65;7.65;;;;;;;8.49;100.00;62870.97;5023775;28;20225;-74
2023/03/22 01:13:09;;;;;;;8.30;7.50;;;;;;;8.44;100.00;62868.84;5024078;28;20226;-73
2023/03/22 01:15:38;;;;;;;4.72;4.32;;;;;;;8.29;100.00;62852.84;5025233;28;20464;-73
2023/03/22 01:18:06;;;;;;;3.33;3.13;;;;;;;8.12;100.00;62838.31;5022054;28;20278;-73
2023/03/22 01:20:33;;;;;;;3.97;3.67;;;;;;;8.01;100.00;62822.41;5025508;28;20202;-73
2023/03/22 01:23:00;;;;;;;4.80;4.32;;;;;;;8.01;100.00;62829.50;5025896;28;20227;-73
2023/03/22 01:25:27;;;;;;;7.15;6.47;;;;;;;7.95;100.00;62818.75;5025032;28;20232;-73
2023/03/22 01:27:54;;;;;;;5.60;5.10;;;;;;;7.93;100.00;62814.16;5021586;28;20229;-74
2023/03/22 01:30:21;;;;;;;6.28;4.97;;;;;;;7.84;100.00;62812.47;5023469;28;20203;-73
2023/03/22 01:32:50;;;;;;;5.68;5.20;;;;;;;7.82;100.00;62802.25;5027468;28;20226;-73
2023/03/22 01:35:16;;;;;;;5.65;5.20;;;;;;;7.87;100.00;62813.03;5024181;28;20435;-73
2023/03/22 01:37:44;;;;;;;4.93;4.57;;;;;;;7.81;100.00;62806.84;5022528;28;20266;-74
2023/03/22 01:40:12;;;;;;;5.43;4.93;;;;;;;7.70;100.00;62790.41;5028326;28;20498;-74
2023/03/22 01:42:39;;;;;;;4.38;4.07;;;;;;;7.72;100.00;62789.41;5045727;28;20218;-74
2023/03/22 01:45:35;;;;;;;4.85;4.30;;;;;;;7.73;100.00;62795.53;5035581;28;20226;-75
2023/03/22 01:48:08;;;;;;;4.82;4.35;;;;;;;7.69;100.00;62789.38;5023702;28;20218;-75
2023/03/22 01:50:37;;;;;;;4.30;4.00;;;;;;;7.69;100.00;62793.91;5026887;28;20211;-73
2023/03/22 01:53:08;;;;;;;4.65;4.25;;;;;;;7.71;100.00;62796.50;5030475;28;20221;-76
2023/03/22 01:55:35;;;;;;;6.82;4.25;;;;;;;7.72;100.00;62794.47;5021177;28;20202;-75
2023/03/22 01:58:04;;;;;;;9.82;4.47;;;;;;;7.76;100.00;62801.66;5022308;28;20222;-73
2023/03/22 02:00:31;;;;;;;4.45;4.10;;;;;;;7.73;100.00;62796.03;5024987;28;20206;-74
2023/03/22 02:02:58;;;;;;;4.07;3.78;;;;;;;7.67;100.00;62787.31;5022779;28;20226;-75
2023/03/22 02:05:27;;;;;;;3.83;3.53;;;;;;;7.64;100.00;62789.28;5026020;28;20231;-75
2023/03/22 02:07:54;;;;;;;3.80;3.50;;;;;;;7.63;100.00;62787.72;5024588;28;20234;-74
2023/03/22 02:10:24;;;;;;;2.83;2.63;;;;;;;7.60;100.00;62784.63;5024433;28;20198;-76
2023/03/22 02:13:12;;;;;;;3.20;2.95;;;;;;;7.50;100.00;62769.75;5024771;28;20219;-75
2023/03/22 02:15:45;;;;;;;3.42;3.22;;;;;;;7.43;100.00;62767.59;5020272;28;20356;-75
2023/03/22 02:18:34;;;;;;;4.43;4.13;;;;;;;7.48;100.00;62772.25;5024840;28;20215;-74
2023/03/22 02:21:33;;;;;;;4.22;3.47;;;;;;;7.52;100.00;62776.91;5024342;28;20237;-73
2023/03/22 02:24:22;;;;;;;5.22;3.20;;;;;;;7.49;100.00;62766.19;4999050;28;20195;-74
2023/03/22 02:27:20;;;;;;;3.10;2.80;;;;;;;7.50;100.00;62774.31;5025740;28;20528;-74
2023/03/22 02:29:54;;;;;;;2.72;2.60;;;;;;;7.53;100.00;62774.88;5026597;28;20261;-74
2023/03/22 02:33:09;;;;;;;2.33;2.22;;;;;;;7.45;100.00;62769.66;5024040;28;20237;-74
2023/03/22 02:35:53;;;;;;;3.00;2.80;;;;;;;7.46;100.00;62768.16;4981651;28;20282;-74
2023/03/22 02:39:03;;;;;;;2.42;2.33;;;;;;;7.47;100.00;62769.19;5026555;28;20227;-74
2023/03/22 02:41:42;;;;;;;2.20;2.10;;;;;;;7.46;100.00;62770.16;5027516;28;20229;-74
2023/03/22 02:44:16;;;;;;;2.35;2.25;;;;;;;7.51;100.00;62772.81;5023795;28;20217;-74
2023/03/22 02:46:48;;;;;;;2.40;2.25;;;;;;;7.56;100.00;62780.50;5029021;28;20245;-72
2023/03/22 02:49:21;;;;;;;2.22;2.13;;;;;;;7.55;100.00;62777.47;5031060;28;20187;-73
2023/03/22 02:51:55;;;;;;;2.47;2.28;;;;;;;7.49;100.00;62771.25;5022715;28;20219;-74
2023/03/22 02:54:27;;;;;;;2.53;2.33;;;;;;;7.43;100.00;62762.03;5035323;28;20215;-74
2023/03/22 02:57:03;;;;;;;2.63;2.20;;;;;;;7.46;100.00;62768.16;5048080;28;20217;-76
2023/03/22 02:59:36;;;;;;;2.38;2.28;;;;;;;7.43;100.00;62762.03;5043371;28;20198;-75
2023/03/22 03:02:04;;;;;;;2.55;2.35;;;;;;;7.44;100.00;62763.06;5025503;28;20290;-76
2023/03/22 03:04:35;;;;;;;2.65;2.55;;;;;;;7.39;100.00;62755.88;5010650;28;20286;-75
2023/03/22 03:07:05;;;;;;;2.55;2.35;;;;;;;7.39;100.00;62760.41;5008308;28;20235;-76
2023/03/22 03:09:33;;;;;;;3.25;3.05;;;;;;;7.39;100.00;62755.34;5012126;28;20207;-76
2023/03/22 03:12:01;;;;;;;2.28;2.17;;;;;;;7.42;100.00;62761.50;5025120;28;20219;-76
2023/03/22 03:14:30;;;;;;;2.75;2.63;;;;;;;7.44;100.00;62766.09;5029623;28;20253;-75
2023/03/22 03:17:10;;;;;;;1.98;1.88;;;;;;;7.43;100.00;62764.56;5028481;28;20265;-75
2023/03/22 03:19:45;;;;;;;2.05;1.95;;;;;;;7.47;100.00;62768.69;5025837;28;20218;-75
2023/03/22 03:22:29;;;;;;;2.00;1.90;;;;;;;7.43;100.00;62764.56;5018569;28;20219;-74
2023/03/22 03:25:07;;;;;;;2.90;2.47;;;;;;;7.34;100.00;62755.25;5010978;28;20195;-76
2023/03/22 03:27:39;;;;;;;2.20;2.10;;;;;;;7.31;100.00;62750.16;5028167;28;20274;-76
2023/03/22 03:30:11;;;;;;;2.17;2.08;;;;;;;7.40;100.00;62759.44;5022846;28;20246;-74
2023/03/22 03:32:45;;;;;;;2.38;2.20;;;;;;;7.38;100.00;62757.38;5027751;28;20226;-75
2023/03/22 03:35:21;;;;;;;2.67;2.58;;;;;;;7.38;100.00;62757.38;5029300;28;20267;-75
2023/03/22 03:37:51;;;;;;;2.58;2.38;;;;;;;7.36;100.00;62754.78;5031447;28;20225;-75
2023/03/22 03:40:23;;;;;;;3.47;2.67;;;;;;;7.39;100.00;62760.41;5016020;28;20203;-73
2023/03/22 03:42:54;;;;;;;2.97;2.80;;;;;;;7.31;100.00;62752.69;5007964;28;20231;-74
2023/03/22 03:45:22;;;;;;;2.47;2.38;;;;;;;7.31;100.00;62752.16;5027251;28;20198;-73
2023/03/22 03:47:54;;;;;;;2.42;2.33;;;;;;;7.33;100.00;62752.22;5033173;28;20214;-73
2023/03/22 03:50:21;;;;;;;2.78;2.58;;;;;;;7.30;100.00;62748.59;5024260;28;20265;-75
2023/03/22 03:52:48;;;;;;;2.60;2.40;;;;;;;7.28;100.00;62747.06;5035141;28;20240;-75
2023/03/22 03:55:15;;;;;;;2.40;2.20;;;;;;;7.29;100.00;62745.56;5035333;28;20279;-74
2023/03/22 03:57:42;;;;;;;2.88;2.65;;;;;;;7.29;100.00;62748.09;5031386;28;20219;-74
2023/03/22 04:00:13;;;;;;;2.80;2.30;;;;;;;7.30;100.00;62754.19;5031232;28;20199;-76
2023/03/22 04:02:40;;;;;;;3.00;2.67;;;;;;;7.28;100.00;62749.06;5030906;28;20516;-74
2023/03/22 04:05:09;;;;;;;2.60;2.40;;;;;;;7.30;100.00;62751.13;5024565;28;20229;-74
2023/03/22 04:07:36;;;;;;;2.58;2.38;;;;;;;7.29;100.00;62748.09;5025959;28;20231;-73
2023/03/22 04:10:03;;;;;;;1.98;1.88;;;;;;;7.34;100.00;62758.31;5027274;28;20210;-74
2023/03/22 04:12:30;;;;;;;2.90;2.55;;;;;;;7.31;100.00;62749.63;5027670;28;20249;-74
2023/03/22 04:14:56;;;;;;;3.03;2.83;;;;;;;7.25;100.00;62743.94;5025055;28;20260;-74
2023/03/22 04:17:28;;;;;;;3.20;3.00;;;;;;;7.30;100.00;62749.13;5026111;28;20580;-76
2023/03/22 04:19:55;;;;;;;4.63;3.28;;;;;;;7.25;100.00;62749.03;5028016;28;20198;-74
2023/03/22 04:22:24;;;;;;;3.10;2.90;;;;;;;7.22;100.00;62743.41;5027705;28;20228;-74
2023/03/22 04:24:50;;;;;;;3.00;2.80;;;;;;;7.19;100.00;62740.31;5021526;28;20258;-74
2023/03/22 04:27:18;;;;;;;2.78;2.58;;;;;;;7.18;100.00;62739.25;5027076;28;20427;-75
2023/03/22 04:29:47;;;;;;;2.38;2.28;;;;;;;7.19;100.00;62742.84;5025921;28;20202;-75
2023/03/22 04:32:15;;;;;;;2.42;2.30;;;;;;;7.19;100.00;62739.78;5026289;28;20242;-73
2023/03/22 04:34:44;;;;;;;2.78;2.50;;;;;;;7.23;100.00;62741.38;5027500;28;20206;-74
2023/03/22 04:37:11;;;;;;;2.75;2.60;;;;;;;7.23;100.00;62741.38;5037374;28;20260;-75
2023/03/22 04:39:38;;;;;;;2.75;2.60;;;;;;;7.26;100.00;62747.00;5045372;28;20248;-74
2023/03/22 04:42:05;;;;;;;3.78;2.83;;;;;;;7.30;100.00;62751.13;5028087;28;20222;-74
2023/03/22 04:44:32;;;;;;;3.20;3.00;;;;;;;7.31;100.00;62752.69;5037834;28;20248;-73
2023/03/22 04:46:58;;;;;;;3.20;2.95;;;;;;;7.35;100.00;62759.34;5045259;28;20238;-74
2023/03/22 04:49:26;;;;;;;3.92;3.63;;;;;;;7.38;100.00;62762.44;5028258;28;20253;-76
2023/03/22 04:51:55;;;;;;;3.47;3.28;;;;;;;7.36;100.00;62754.78;5047420;28;20214;-75
2023/03/22 04:54:22;;;;;;;4.00;3.65;;;;;;;7.38;100.00;62759.91;5045620;28;20244;-75
2023/03/22 04:56:50;;;;;;;4.43;4.13;;;;;;;7.37;100.00;62755.84;5040253;28;20226;-74
2023/03/22 04:59:19;;;;;;;4.25;3.80;;;;;;;7.43;100.00;62767.59;5023380;28;20203;-74
2023/03/22 05:01:46;;;;;;;4.10;3.80;;;;;;;7.38;100.00;62754.84;5028394;28;20222;-76
2023/03/22 05:04:13;;;;;;;4.28;3.42;;;;;;;7.40;100.00;62764.50;5033953;28;20434;-74
2023/03/22 05:06:40;;;;;;;3.75;3.42;;;;;;;7.42;100.00;62761.00;5022398;28;20288;-74
2023/03/22 05:09:09;;;;;;;3.75;3.55;;;;;;;7.46;100.00;62767.63;5023369;28;20263;-74
2023/03/22 05:11:35;;;;;;;3.60;3.35;;;;;;;7.44;100.00;62765.59;5027912;28;20217;-75
2023/03/22 05:14:03;;;;;;;3.90;3.60;;;;;;;7.49;100.00;62773.78;5031440;28;20229;-74
2023/03/22 05:16:31;;;;;;;3.40;3.10;;;;;;;7.51;100.00;62772.81;5023019;28;20364;-74
2023/03/22 05:18:58;;;;;;;3.35;3.15;;;;;;;7.49;100.00;62771.25;5033058;28;20190;-75
2023/03/22 05:21:27;;;;;;;3.50;3.20;;;;;;;7.52;100.00;62771.31;5034251;28;20218;-75
2023/03/22 05:23:56;;;;;;;3.67;3.38;;;;;;;7.62;100.00;62784.16;5025757;28;20241;-73
2023/03/22 05:26:26;;;;;;;3.40;3.20;;;;;;;7.62;100.00;62784.16;5022380;28;20241;-75
2023/03/22 05:28:53;;;;;;;2.97;2.78;;;;;;;7.57;100.00;62777.00;5040040;28;20207;-75
2023/03/22 05:31:21;;;;;;;3.13;2.92;;;;;;;7.59;100.00;62781.56;5027495;28;20499;-76
2023/03/22 05:33:50;;;;;;;3.47;3.25;;;;;;;7.62;100.00;62779.63;5022934;28;20199;-74
2023/03/22 05:36:18;;;;;;;2.70;2.60;;;;;;;7.68;100.00;62788.34;5024985;28;20202;-75
2023/03/22 05:38:45;;;;;;;4.22;3.45;;;;;;;7.67;100.00;62792.38;5025519;28;20203;-75
2023/03/22 05:41:12;;;;;;;2.70;2.58;;;;;;;7.67;100.00;62794.91;5022369;28;20222;-75
2023/03/22 05:43:40;;;;;;;3.85;3.55;;;;;;;7.72;100.00;62792.47;5011031;28;20215;-75
2023/03/22 05:46:08;;;;;;;2.70;2.60;;;;;;;7.76;100.00;62798.63;5024168;28;20226;-75
2023/03/22 05:48:36;;;;;;;2.13;2.03;;;;;;;7.74;100.00;62797.06;5025001;28;20246;-74
2023/03/22 05:51:05;;;;;;;3.22;3.03;;;;;;;7.72;100.00;62791.94;5034125;28;20234;-75
2023/03/22 05:53:32;;;;;;;2.53;2.42;;;;;;;7.76;100.00;62801.66;5023317;28;20203;-75
2023/03/22 05:56:00;;;;;;;2.47;2.28;;;;;;;7.81;100.00;62804.28;5039875;28;20210;-76
2023/03/22 05:58:29;;;;;;;2.63;2.42;;;;;;;7.84;100.00;62809.94;5046572;28;20202;-75
2023/03/22 06:00:59;;;;;;;2.45;2.35;;;;;;;7.86;100.00;62803.88;5027016;28;20225;-77
2023/03/22 06:03:26;;;;;;;5.03;3.58;;;;;;;7.88;100.00;62813.53;5024164;28;20209;-77
2023/03/22 06:05:54;;;;;;;4.72;4.25;;;;;;;7.82;100.00;62799.72;5027181;28;20205;-75
2023/03/22 06:08:21;;;;;;;4.20;3.80;;;;;;;7.86;100.00;62811.47;5022373;28;20257;-74
2023/03/22 06:10:50;;;;;;;4.20;3.90;;;;;;;7.93;100.00;62816.69;5022036;28;20199;-75
2023/03/22 06:13:18;;;;;;;4.05;3.63;;;;;;;8.03;100.00;62829.03;5025191;28;20246;-76
2023/03/22 06:15:45;;;;;;;4.60;3.17;;;;;;;8.05;100.00;62828.56;5024799;28;20307;-75
2023/03/22 06:18:13;;;;;;;3.05;2.85;;;;;;;8.05;100.00;62826.53;5019228;28;20230;-73
2023/03/22 06:20:41;;;;;;;3.17;2.97;;;;;;;8.05;100.00;62826.03;5025864;28;20256;-75
2023/03/22 06:23:08;;;;;;;3.25;2.95;;;;;;;8.04;100.00;62830.56;5024872;28;20218;-75
2023/03/22 06:25:35;;;;;;;2.70;2.50;;;;;;;8.04;100.00;62825.50;5024240;28;20206;-75
2023/03/22 06:28:02;;;;;;;3.97;3.25;;;;;;;8.01;100.00;62824.94;5020731;28;20242;-76
2023/03/22 06:30:29;;;;;;;2.95;2.75;;;;;;;7.98;100.00;62818.78;5024482;28;20221;-75
2023/03/22 06:32:59;;;;;;;3.85;3.58;;;;;;;8.03;100.00;62823.94;5026749;28;20246;-75
2023/03/22 06:35:27;;;;;;;3.78;3.58;;;;;;;8.07;100.00;62826.06;5023617;28;20261;-74
2023/03/22 06:37:54;;;;;;;4.00;3.67;;;;;;;8.09;100.00;62835.72;5005074;28;20223;-75
2023/03/22 06:40:21;;;;;;;4.00;3.70;;;;;;;8.10;100.00;62831.72;5004389;28;20250;-74
2023/03/22 06:42:48;;;;;;;3.53;3.22;;;;;;;8.18;100.00;62839.97;5004387;28;20273;-75
2023/03/22 06:45:15;;;;;;;3.28;3.08;;;;;;;8.20;100.00;62844.03;5009203;28;20199;-76
2023/03/22 06:47:42;;;;;;;3.40;3.17;;;;;;;8.25;100.00;62851.75;5027884;28;20272;-75
2023/03/22 06:50:10;;;;;;;3.33;3.13;;;;;;;8.32;100.00;62853.91;5025702;28;20205;-74
2023/03/22 06:52:38;;;;;;;3.28;3.08;;;;;;;8.41;100.00;62865.25;5023945;28;20257;-75
2023/03/22 06:55:06;;;;;;;1.92;1.83;;;;;;;8.49;100.00;62874.00;5022044;28;20304;-75
2023/03/22 06:57:33;;;;;;;2.53;2.33;;;;;;;8.51;100.00;62875.59;5023538;28;20280;-75
2023/03/22 07:00:00;;;;;;;1.90;1.80;;;;;;;8.56;100.00;62881.25;5024080;28;20222;-74
2023/03/22 07:02:27;;;;;;;2.05;1.70;;;;;;;8.60;100.00;62884.88;5027176;28;20228;-74
2023/03/22 07:04:54;;;;;;;9.07;4.80;;;;;;;8.39;100.00;62863.69;5022620;28;20249;-76
2023/03/22 07:07:21;;;;;;;9.40;5.85;;;;;;;8.16;100.00;62840.44;5023953;28;20235;-77
2023/03/22 07:09:50;;;;;;;10.70;6.25;;;;;;;8.09;100.00;62833.19;5025870;28;20203;-76
2023/03/22 07:12:17;;;;;;;6.53;4.63;;;;;;;8.23;100.00;62849.16;5021452;28;20214;-74
2023/03/22 07:14:44;;;;;;;5.85;5.25;;;;;;;8.30;100.00;62853.88;5023637;28;20199;-75
2023/03/22 07:17:12;;;;;;;4.57;4.18;;;;;;;8.33;100.00;62857.50;5028070;28;20551;-76
2023/03/22 07:19:41;;;;;;;4.03;3.80;;;;;;;8.28;100.00;62852.34;5024064;28;20203;-75
2023/03/22 07:22:08;;;;;;;5.28;4.88;;;;;;;8.29;100.00;62855.38;5016238;28;20253;-75
2023/03/22 07:24:35;;;;;;;5.03;4.55;;;;;;;8.35;100.00;62861.59;5005080;28;20204;-74
2023/03/22 07:27:04;;;;;;;6.05;4.55;;;;;;;8.38;100.00;62860.13;5024020;28;20539;-75
2023/03/22 07:29:31;;;;;;;4.15;3.72;;;;;;;8.41;100.00;62868.28;5025476;28;20226;-75
2023/03/22 07:31:58;;;;;;;4.00;3.80;;;;;;;8.45;100.00;62864.81;5028135;28;20222;-75
2023/03/22 07:34:25;;;;;;;3.72;3.45;;;;;;;8.50;100.00;62877.06;5029763;28;20198;-74
2023/03/22 07:36:52;;;;;;;4.30;3.90;;;;;;;8.48;100.00;62875.53;5026923;28;20531;-74
2023/03/22 07:39:19;;;;;;;4.32;4.03;;;;;;;8.56;100.00;62881.25;5027500;28;20211;-76
2023/03/22 07:41:46;;;;;;;3.22;3.03;;;;;;;8.34;100.00;62855.47;5025796;28;20237;-76
2023/03/22 07:44:14;;;;;;;3.83;3.60;;;;;;;8.20;100.00;62847.09;5030903;28;20256;-75
2023/03/22 07:46:41;;;;;;;3.40;2.92;;;;;;;8.27;100.00;62848.25;5044512;28;20389;-75
2023/03/22 07:49:09;;;;;;;3.92;3.60;;;;;;;8.38;100.00;62862.13;5029770;28;20198;-75
2023/03/22 07:51:36;;;;;;;4.07;3.55;;;;;;;8.53;100.00;62877.63;5028566;28;20251;-73
2023/03/22 07:54:04;;;;;;;3.88;3.50;;;;;;;8.65;100.00;62890.03;5032687;28;20236;-74
2023/03/22 07:56:31;;;;;;;3.90;3.65;;;;;;;8.76;100.00;62901.41;5047756;28;20240;-74
2023/03/22 07:58:57;;;;;;;4.35;3.63;;;;;;;8.74;100.00;62901.88;5032172;28;20531;-75
2023/03/22 08:01:26;;;;;;;4.25;3.88;;;;;;;8.67;100.00;62895.16;5007476;28;20274;-74
2023/03/22 08:03:53;;;;;;;6.93;4.25;;;;;;;8.59;100.00;62881.31;5010246;28;20226;-75
2023/03/22 08:06:20;;;;;;;3.90;3.42;;;;;;;8.45;100.00;62867.34;5046551;28;20457;-75
2023/03/22 08:08:47;;;;;;;4.30;4.00;;;;;;;8.49;100.00;62876.06;5030289;28;20281;-74
2023/03/22 08:11:14;;;;;;;5.18;4.47;;;;;;;8.58;100.00;62880.25;5027830;28;20203;-74
2023/03/22 08:13:41;;;;;;;6.03;5.10;;;;;;;8.71;100.00;62898.78;5041296;28;20197;-74
2023/03/22 08:16:08;;;;;;;8.07;5.40;;;;;;;8.82;100.00;62905.06;5044916;28;20236;-75
2023/03/22 08:18:37;;;;;;;5.90;4.70;;;;;;;8.86;100.00;62911.72;5026059;28;20225;-75
2023/03/22 08:21:04;;;;;;;5.68;4.70;;;;;;;8.69;100.00;62894.69;5026293;28;20205;-74
2023/03/22 08:23:31;;;;;;;4.85;4.50;;;;;;;8.71;100.00;62899.31;5027850;28;20412;-72
2023/03/22 08:25:58;;;;;;;5.85;5.05;;;;;;;8.69;100.00;62892.16;5024705;28;20270;-75
2023/03/22 08:28:25;;;;;;;5.50;4.45;;;;;;;8.70;100.00;62895.19;5027617;28;20264;-76
2023/03/22 08:30:52;;;;;;;4.25;3.83;;;;;;;8.72;100.00;62897.25;5030436;28;20230;-75
2023/03/22 08:33:22;;;;;;;3.00;2.80;;;;;;;8.72;100.00;62897.78;5026724;28;20253;-75
2023/03/22 08:35:51;;;;;;;2.20;2.10;;;;;;;8.82;100.00;62910.66;5023851;28;20210;-75
2023/03/22 08:38:18;;;;;;;2.50;2.30;;;;;;;8.86;100.00;62907.19;5026355;28;20269;-74
2023/03/22 08:40:46;;;;;;;2.55;2.30;;;;;;;8.85;100.00;62911.22;5026587;28;20199;-75
2023/03/22 08:43:13;;;;;;;2.67;2.45;;;;;;;8.89;100.00;62912.28;5026235;28;20226;-75
2023/03/22 08:45:40;;;;;;;2.65;2.45;;;;;;;8.89;100.00;62915.34;5022584;28;20566;-74
2023/03/22 08:48:07;;;;;;;2.63;2.42;;;;;;;8.93;100.00;62919.50;5025928;28;20253;-75
2023/03/22 08:50:34;;;;;;;3.28;2.85;;;;;;;8.98;100.00;62926.69;5023678;28;20241;-74
2023/03/22 08:53:03;;;;;;;3.60;2.33;;;;;;;8.99;100.00;62927.72;5025613;28;20218;-74
2023/03/22 08:55:30;;;;;;;2.60;2.40;;;;;;;9.04;100.00;62935.44;5025339;28;20230;-77
2023/03/22 08:57:57;;;;;;;2.58;2.38;;;;;;;9.04;100.00;62933.38;5026143;28;20246;-74
2023/03/22 09:00:24;;;;;;;6.60;3.10;;;;;;;9.04;100.00;62933.38;5024027;28;20210;-74
2023/03/22 09:02:51;;;;;;;3.63;3.42;;;;;;;9.08;100.00;62935.00;5026567;28;20241;-75
2023/03/22 09:05:18;;;;;;;2.58;2.40;;;;;;;9.11;100.00;62940.63;5027919;28;20198;-73
2023/03/22 09:07:45;;;;;;;2.72;2.55;;;;;;;9.11;100.00;62940.63;5024780;28;20570;-74
2023/03/22 09:10:15;;;;;;;2.90;2.63;;;;;;;9.07;100.00;62933.44;5025047;28;20202;-75
2023/03/22 09:12:42;;;;;;;2.97;2.78;;;;;;;9.06;100.00;62935.47;5024937;28;20218;-74
2023/03/22 09:15:10;;;;;;;2.15;2.05;;;;;;;9.07;100.00;62935.97;5026533;28;20203;-75
2023/03/22 09:17:37;;;;;;;2.33;2.13;;;;;;;9.18;100.00;62945.31;5023386;28;20625;-75
2023/03/22 09:20:05;;;;;;;3.22;2.97;;;;;;;9.15;100.00;62941.72;5025377;28;20213;-74
2023/03/22 09:22:32;;;;;;;3.60;3.28;;;;;;;9.00;100.00;62926.22;5028476;28;20222;-74
2023/03/22 09:24:59;;;;;;;3.42;3.13;;;;;;;9.05;100.00;62936.44;5023640;28;20241;-74
2023/03/22 09:27:27;;;;;;;5.07;4.47;;;;;;;8.86;100.00;62911.72;5024749;28;20516;-74
2023/03/22 09:29:54;;;;;;;8.93;4.93;;;;;;;8.65;100.00;62890.56;5027544;28;20205;-73
2023/03/22 09:32:21;;;;;;;7.97;4.63;;;;;;;8.72;100.00;62899.81;5025086;28;20226;-73
2023/03/22 09:34:48;;;;;;;9.30;5.88;;;;;;;8.82;100.00;62905.56;5022875;28;20229;-73
2023/03/22 09:37:15;;;;;;;6.45;5.60;;;;;;;8.82;100.00;62908.13;5026634;28;20265;-74
2023/03/22 09:39:43;;;;;;;8.85;5.95;;;;;;;8.94;100.00;62917.97;5027169;28;20237;-73
2023/03/22 09:42:24;;;;;;;9.85;5.50;;;;;;;9.06;100.00;62932.91;5024586;28;20294;-74
2023/03/22 09:44:54;;;;;;;7.15;6.28;;;;;;;9.07;100.00;62931.44;5021831;28;20248;-74
2023/03/22 09:47:28;;;;;;;8.18;6.65;;;;;;;9.09;100.00;62935.50;5025754;28;20238;-73
2023/03/22 09:50:03;;;;;;;9.80;8.23;;;;;;;9.14;100.00;62938.13;5025015;28;20194;-73
2023/03/22 09:52:30;;;;;;;8.82;7.85;;;;;;;9.21;100.00;62945.88;5020437;28;20226;-74
2023/03/22 09:54:59;;;;;;;9.73;8.20;;;;;;;9.21;100.00;62947.91;5024550;28;20270;-73
2023/03/22 09:57:31;;;;;;;9.18;8.32;;;;;;;9.28;100.00;62955.16;5024393;28;20227;-74
2023/03/22 10:00:11;;;;;;;8.80;7.57;;;;;;;9.35;100.00;62964.94;5026676;28;20198;-74
2023/03/22 10:02:47;;;;;;;8.65;6.68;;;;;;;9.37;100.00;62964.44;5024682;28;20252;-73
2023/03/22 10:05:21;;;;;;;8.45;6.93;;;;;;;9.49;100.00;62979.41;5022368;28;20260;-73
2023/03/22 10:08:19;;;;;;;7.70;6.90;;;;;;;9.64;100.00;62991.84;5024197;28;20238;-74
2023/03/22 10:10:46;;;;;;;10.15;6.57;;;;;;;9.65;100.00;62998.50;5025080;28;20245;-73
2023/03/22 10:13:18;;;;;;;9.10;7.20;;;;;;;9.66;100.00;62991.38;5024574;28;20249;-73
2023/03/22 10:15:50;;;;;;;4.82;4.43;;;;;;;9.43;100.00;62972.69;5024830;28;20205;-74
2023/03/22 10:18:20;;;;;;;5.38;4.88;;;;;;;9.25;100.00;62955.09;5024083;28;20234;-73
2023/03/22 10:20:54;;;;;;;10.00;6.13;;;;;;;9.19;100.00;62943.84;5024779;28;20446;-75
2023/03/22 10:23:29;;;;;;;7.50;6.40;;;;;;;9.21;100.00;62947.91;5022115;28;20245;-74
2023/03/22 10:25:57;;;;;;;5.57;5.18;;;;;;;9.26;100.00;62955.63;5023946;28;20210;-73
2023/03/22 10:28:29;;;;;;;6.05;4.60;;;;;;;9.36;100.00;62963.41;5023523;28;20257;-74
2023/03/22 10:30:58;;;;;;;4.47;4.10;;;;;;;9.26;100.00;62953.59;5020550;28;20199;-74
2023/03/22 10:33:39;;;;;;;3.72;3.42;;;;;;;9.18;100.00;62945.31;5004763;28;20199;-74
2023/03/22 10:36:12;;;;;;;2.72;2.53;;;;;;;9.12;100.00;62939.13;5004877;28;20250;-72
2023/03/22 10:38:46;;;;;;;3.63;3.42;;;;;;;9.18;100.00;62940.25;5004418;28;20187;-73
2023/03/22 10:41:17;;;;;;;5.03;4.63;;;;;;;9.26;100.00;62953.09;5022360;28;20202;-73
2023/03/22 10:43:45;;;;;;;6.75;5.63;;;;;;;9.25;100.00;62950.03;5023848;28;20476;-73
2023/03/22 10:46:18;;;;;;;6.65;5.65;;;;;;;9.21;100.00;62950.47;5024562;28;20198;-72
2023/03/22 10:48:48;;;;;;;9.85;6.68;;;;;;;9.17;100.00;62943.78;5021929;28;20274;-73
2023/03/22 10:51:23;;;;;;;7.90;7.18;;;;;;;9.23;100.00;62947.44;5019578;28;20202;-73
2023/03/22 10:53:54;;;;;;;9.77;6.95;;;;;;;9.33;100.00;62960.84;5023059;28;20249;-74
2023/03/22 10:56:22;;;;;;;6.00;5.47;;;;;;;9.47;100.00;62974.28;5024233;28;20242;-72
2023/03/22 10:58:54;;;;;;;5.30;4.90;;;;;;;9.36;100.00;62963.41;5024450;28;20195;-73
2023/03/22 11:01:30;;;;;;;5.03;3.35;;;;;;;9.34;100.00;62961.88;5024450;28;20291;-73
2023/03/22 11:04:00;;;;;;;3.83;3.60;;;;;;;9.30;100.00;62959.78;5025472;28;20201;-73
2023/03/22 11:06:31;;;;;;;2.58;2.47;;;;;;;9.24;100.00;62948.47;5028333;28;20226;-74
2023/03/22 11:09:01;;;;;;;2.20;2.00;;;;;;;9.32;100.00;62959.28;5029824;28;20214;-72
2023/03/22 11:11:29;;;;;;;3.28;2.92;;;;;;;9.21;100.00;62945.88;5028363;28;20268;-73
2023/03/22 11:14:04;;;;;;;2.72;2.60;;;;;;;9.26;100.00;62955.63;5026118;28;20203;-73
2023/03/22 11:16:43;;;;;;;1.50;1.50;;;;;;;9.38;100.00;62960.41;5032090;28;20214;-73
2023/03/22 11:19:14;;;;;;;1.70;1.70;;;;;;;9.50;100.00;62975.34;5028862;28;20190;-74
2023/03/22 11:21:42;;;;;;;2.13;2.03;;;;;;;9.52;100.00;62977.44;5022593;28;20285;-74
2023/03/22 11:24:14;;;;;;;2.13;2.03;;;;;;;9.44;100.00;62976.25;5008963;28;20210;-73
2023/03/22 11:26:43;;;;;;;2.05;1.95;;;;;;;9.44;100.00;62969.13;5023148;28;20227;-73
2023/03/22 11:29:16;;;;;;;2.42;2.22;;;;;;;9.22;100.00;62949.47;5011861;28;20285;-74
2023/03/22 11:31:54;;;;;;;2.45;2.35;;;;;;;9.30;100.00;62957.22;5022628;28;20238;-73
2023/03/22 11:34:23;;;;;;;2.42;2.22;;;;;;;9.22;100.00;62952.00;5027603;28;20213;-74
2023/03/22 11:36:55;;;;;;;2.38;2.28;;;;;;;9.13;100.00;62940.16;5025475;28;20256;-74
2023/03/22 11:39:24;;;;;;;2.42;1.98;;;;;;;8.99;100.00;62925.69;5027736;28;20203;-74
2023/03/22 11:41:53;;;;;;;2.75;2.65;;;;;;;8.84;100.00;62912.72;5020512;28;20261;-73
2023/03/22 11:44:22;;;;;;;2.88;2.67;;;;;;;8.78;100.00;62904.00;5027270;28;20233;-73
2023/03/22 11:46:56;;;;;;;3.47;3.13;;;;;;;8.74;100.00;62899.84;5029098;28;20249;-74